Time;durP1;ratioP1;P1;durP2;ratioP2;P2;SDS_P1;SDS_P2;PMS_P1;PMS_P2;Temp;Humidity;BMP_temperature;BMP_pressure;BME280_temperature;BME280_humidity;BME280_pressure;Samples;Min_cycle;Max_cycle;Signal;HPM_P1;HPM_P2
2021/06/20 00:01:46;;;;;;;20.08;11.32;;;18.30;99.90;;;;;;5034667;28;20188;-81
2021/06/20 00:04:12;;;;;;;12.18;10.98;;;18.40;99.90;;;;;;5033738;28;20214;-81
2021/06/20 00:06:38;;;;;;;13.90;11.00;;;18.30;99.90;;;;;;5034829;28;20547;-81
2021/06/20 00:09:11;;;;;;;12.93;10.55;;;18.30;99.90;;;;;;5034953;28;20180;-81
2021/06/20 00:11:40;;;;;;;13.63;10.77;;;18.30;99.90;;;;;;5034808;28;20223;-81
2021/06/20 00:14:06;;;;;;;12.18;10.93;;;18.30;99.90;;;;;;5034545;28;20160;-80
2021/06/20 00:16:34;;;;;;;12.82;11.57;;;18.20;99.90;;;;;;5034821;28;20168;-80
2021/06/20 00:19:00;;;;;;;13.48;11.32;;;18.20;99.90;;;;;;5034712;28;20164;-80
2021/06/20 00:21:26;;;;;;;17.98;13.23;;;18.30;99.90;;;;;;5033328;28;20560;-81
2021/06/20 00:23:52;;;;;;;15.77;11.20;;;18.20;99.90;;;;;;5034450;28;20546;-81
2021/06/20 00:26:18;;;;;;;14.45;11.70;;;18.20;99.90;;;;;;5034353;28;20168;-81
2021/06/20 00:28:44;;;;;;;16.40;12.73;;;18.20;99.90;;;;;;5033723;28;20168;-80
2021/06/20 00:31:10;;;;;;;18.20;12.07;;;18.20;99.90;;;;;;5034083;28;20214;-81
2021/06/20 00:33:36;;;;;;;16.25;12.23;;;18.20;99.90;;;;;;5034537;28;20171;-81
2021/06/20 00:36:02;;;;;;;15.70;12.80;;;18.30;99.90;;;;;;5033056;28;20184;-81
2021/06/20 00:38:28;;;;;;;15.75;12.90;;;18.50;99.90;;;;;;5034276;28;20264;-81
2021/06/20 00:40:54;;;;;;;18.10;13.52;;;18.60;99.90;;;;;;5034297;28;20255;-81
2021/06/20 00:43:19;;;;;;;20.48;14.27;;;18.60;99.90;;;;;;5033948;28;20206;-81
2021/06/20 00:45:46;;;;;;;19.40;15.07;;;18.60;99.90;;;;;;5034281;28;20164;-81
2021/06/20 00:48:12;;;;;;;20.52;14.35;;;18.80;99.90;;;;;;5033028;28;20164;-81
2021/06/20 00:50:37;;;;;;;20.60;14.05;;;18.80;99.90;;;;;;5033932;28;20725;-81
2021/06/20 00:53:04;;;;;;;20.40;15.05;;;18.90;99.90;;;;;;5034087;28;20601;-81
2021/06/20 00:55:32;;;;;;;17.00;14.20;;;18.80;99.90;;;;;;5034168;28;20160;-81
2021/06/20 00:58:00;;;;;;;19.63;14.25;;;18.80;99.90;;;;;;5032453;28;20180;-81
2021/06/20 01:00:26;;;;;;;21.13;14.10;;;18.70;99.90;;;;;;5033902;28;20172;-80
2021/06/20 01:02:52;;;;;;;16.42;13.43;;;18.60;99.90;;;;;;5033605;28;20207;-80
2021/06/20 01:05:21;;;;;;;19.10;14.07;;;18.50;99.90;;;;;;5033417;28;20597;-81
2021/06/20 01:07:51;;;;;;;16.10;14.15;;;18.50;99.90;;;;;;5032331;28;20213;-81
2021/06/20 01:10:19;;;;;;;23.77;16.77;;;18.80;99.90;;;;;;5033485;28;20587;-81
2021/06/20 01:12:45;;;;;;;21.35;16.10;;;19.00;99.90;;;;;;5033384;28;20192;-81
2021/06/20 01:15:15;;;;;;;24.92;16.90;;;19.20;99.90;;;;;;5033685;28;20164;-81
2021/06/20 01:17:42;;;;;;;26.15;17.75;;;19.20;99.90;;;;;;5033606;28;20191;-81
2021/06/20 01:20:11;;;;;;;24.10;16.52;;;19.20;99.90;;;;;;5033705;28;20247;-81
2021/06/20 01:22:38;;;;;;;26.35;16.83;;;19.10;99.90;;;;;;5033034;28;20544;-81
2021/06/20 01:25:13;;;;;;;25.55;16.92;;;19.00;99.90;;;;;;5033000;28;20634;-80
2021/06/20 01:27:45;;;;;;;29.90;16.65;;;19.10;99.90;;;;;;5033130;28;20201;-81
2021/06/20 01:30:15;;;;;;;25.67;18.20;;;19.30;99.90;;;;;;5033436;28;20688;-81
2021/06/20 01:32:41;;;;;;;31.25;19.73;;;19.30;99.90;;;;;;5032996;28;20192;-81
2021/06/20 01:35:11;;;;;;;26.77;17.95;;;19.20;99.90;;;;;;5033269;28;20183;-81
2021/06/20 01:37:37;;;;;;;25.48;18.25;;;19.10;99.90;;;;;;5033318;28;20190;-81
2021/06/20 01:40:05;;;;;;;31.27;20.38;;;19.10;99.90;;;;;;5033169;28;20213;-81
2021/06/20 01:42:31;;;;;;;29.38;20.92;;;19.00;99.90;;;;;;5033055;28;20192;-81
2021/06/20 01:44:58;;;;;;;33.08;20.42;;;18.90;99.90;;;;;;5033103;28;20169;-80
2021/06/20 01:47:28;;;;;;;33.15;21.70;;;19.00;99.90;;;;;;5032487;28;20176;-81
2021/06/20 01:49:55;;;;;;;31.50;21.38;;;19.20;99.90;;;;;;5031701;28;20204;-81
2021/06/20 01:52:23;;;;;;;30.92;19.52;;;19.20;99.90;;;;;;5032530;28;20207;-81
2021/06/20 01:54:50;;;;;;;38.15;21.55;;;19.20;99.90;;;;;;5032602;28;20229;-81
2021/06/20 01:57:27;;;;;;;30.95;21.20;;;19.00;99.90;;;;;;5032472;28;20167;-81
2021/06/20 01:59:54;;;;;;;34.47;20.92;;;18.90;99.90;;;;;;5032698;28;20213;-81
2021/06/20 02:02:21;;;;;;;44.63;22.00;;;18.80;99.90;;;;;;5032535;28;20180;-80
2021/06/20 02:04:47;;;;;;;34.78;21.83;;;18.80;99.90;;;;;;5034981;28;20164;-80
2021/06/20 02:07:13;;;;;;;43.13;22.27;;;19.00;99.90;;;;;;5036857;28;20189;-81
2021/06/20 02:09:40;;;;;;;36.50;20.83;;;19.00;99.90;;;;;;5040680;28;20557;-80
2021/06/20 02:12:08;;;;;;;34.42;20.27;;;18.90;99.90;;;;;;5039542;28;20203;-80
2021/06/20 02:14:35;;;;;;;32.38;20.13;;;19.00;99.90;;;;;;5034946;28;20164;-81
2021/06/20 02:17:20;;;;;;;31.25;20.05;;;19.10;99.90;;;;;;5033476;28;20522;-80
2021/06/20 02:19:46;;;;;;;28.67;19.23;;;19.00;99.90;;;;;;5033141;28;20160;-81
2021/06/20 02:22:12;;;;;;;28.77;18.52;;;19.20;99.90;;;;;;5033215;28;20563;-81
2021/06/20 02:24:38;;;;;;;27.52;18.25;;;19.20;99.90;;;;;;5032874;28;20172;-80
2021/06/20 02:27:05;;;;;;;34.92;19.17;;;19.20;99.90;;;;;;5031315;28;20650;-80
2021/06/20 02:29:32;;;;;;;29.55;19.33;;;19.40;99.90;;;;;;5032895;28;20164;-80
2021/06/20 02:31:58;;;;;;;25.10;18.40;;;19.50;99.90;;;;;;5032547;28;20203;-81
2021/06/20 02:34:25;;;;;;;30.02;19.00;;;19.60;99.90;;;;;;5032688;28;20568;-80
2021/06/20 02:36:51;;;;;;;32.08;19.15;;;19.50;99.90;;;;;;5032565;28;20171;-81
2021/06/20 02:39:17;;;;;;;30.98;18.98;;;19.50;99.90;;;;;;5032641;28;20283;-80
2021/06/20 02:41:45;;;;;;;28.33;19.30;;;19.40;99.90;;;;;;5032260;28;20188;-80
2021/06/20 02:44:10;;;;;;;26.63;17.88;;;19.50;99.90;;;;;;5032215;28;20250;-80
2021/06/20 02:46:36;;;;;;;28.15;18.95;;;19.50;99.90;;;;;;5032455;28;20275;-81
2021/06/20 02:49:01;;;;;;;26.95;17.77;;;19.30;99.90;;;;;;5032487;28;20168;-80
2021/06/20 02:51:29;;;;;;;27.05;18.38;;;19.40;99.90;;;;;;5031814;28;20226;-80
2021/06/20 02:53:55;;;;;;;23.90;17.52;;;19.50;99.90;;;;;;5032298;28;20172;-80
2021/06/20 02:56:20;;;;;;;31.10;18.83;;;19.40;99.90;;;;;;5032440;28;20172;-80
2021/06/20 02:58:46;;;;;;;31.25;19.08;;;19.30;99.90;;;;;;5035158;28;20612;-80
2021/06/20 03:01:11;;;;;;;25.88;18.80;;;19.30;99.90;;;;;;5036161;28;20188;-80
2021/06/20 03:03:38;;;;;;;30.25;17.83;;;19.30;99.90;;;;;;5035915;28;20167;-80
2021/06/20 03:06:05;;;;;;;30.23;18.48;;;19.40;99.90;;;;;;5036072;28;20255;-81
2021/06/20 03:08:34;;;;;;;27.20;19.55;;;19.40;99.90;;;;;;5035807;28;20172;-80
2021/06/20 03:11:00;;;;;;;30.23;19.65;;;19.20;99.90;;;;;;5035821;28;20203;-80
2021/06/20 03:13:25;;;;;;;33.15;20.63;;;19.20;99.90;;;;;;5034358;28;20174;-80
2021/06/20 03:15:51;;;;;;;32.80;19.92;;;19.20;99.90;;;;;;5035835;28;20168;-80
2021/06/20 03:18:16;;;;;;;31.38;20.67;;;19.40;99.90;;;;;;5035975;28;20215;-80
2021/06/20 03:20:42;;;;;;;34.30;21.08;;;19.40;99.90;;;;;;5035904;28;20564;-81
2021/06/20 03:23:10;;;;;;;32.60;21.38;;;19.40;99.90;;;;;;5035573;28;20207;-81
2021/06/20 03:25:37;;;;;;;37.28;21.10;;;19.50;99.90;;;;;;5035713;28;20164;-81
2021/06/20 03:28:04;;;;;;;32.47;20.17;;;19.50;99.90;;;;;;5035466;28;20191;-81
2021/06/20 03:30:29;;;;;;;30.92;20.42;;;19.50;99.90;;;;;;5035571;28;20279;-80
2021/06/20 03:32:55;;;;;;;32.58;21.13;;;19.40;99.90;;;;;;5035602;28;20332;-81
2021/06/20 03:35:21;;;;;;;30.92;20.00;;;19.40;99.90;;;;;;5035320;28;20160;-80
2021/06/20 03:37:46;;;;;;;37.42;21.58;;;19.30;99.90;;;;;;5033891;28;20172;-80
2021/06/20 03:40:12;;;;;;;36.05;20.95;;;19.40;99.90;;;;;;5035267;28;20164;-81
2021/06/20 03:42:40;;;;;;;35.88;21.60;;;19.40;99.90;;;;;;5034752;28;20198;-81
2021/06/20 03:45:08;;;;;;;35.92;21.45;;;19.30;99.90;;;;;;5035155;28;20174;-80
2021/06/20 03:47:34;;;;;;;33.75;21.50;;;19.30;99.90;;;;;;5035090;28;20190;-80
2021/06/20 03:50:00;;;;;;;34.45;21.42;;;19.20;99.90;;;;;;5035007;28;20595;-80
2021/06/20 03:52:26;;;;;;;35.65;21.83;;;19.30;99.90;;;;;;5034641;28;20208;-81
2021/06/20 03:54:52;;;;;;;33.50;20.83;;;19.20;99.90;;;;;;5035259;28;20259;-81
2021/06/20 03:57:23;;;;;;;29.77;19.65;;;19.00;99.90;;;;;;5034939;28;20226;-80
2021/06/20 03:59:50;;;;;;;37.30;20.30;;;19.10;99.90;;;;;;5035077;28;20172;-81
2021/06/20 04:02:16;;;;;;;35.63;21.25;;;19.20;99.90;;;;;;5033451;28;20188;-80
2021/06/20 04:04:42;;;;;;;30.60;20.02;;;19.20;99.90;;;;;;5035063;28;20172;-80
2021/06/20 04:07:11;;;;;;;34.10;20.55;;;19.20;99.90;;;;;;5034902;28;20167;-81
2021/06/20 04:09:38;;;;;;;35.13;20.05;;;19.30;99.90;;;;;;5034400;28;20188;-80
2021/06/20 04:12:03;;;;;;;33.45;20.30;;;19.30;99.90;;;;;;5033334;28;20222;-81
2021/06/20 04:14:30;;;;;;;39.25;21.45;;;19.40;99.90;;;;;;5034931;28;20172;-80
2021/06/20 04:16:56;;;;;;;34.58;19.70;;;19.40;99.90;;;;;;5034695;28;20163;-80
2021/06/20 04:19:21;;;;;;;35.08;19.85;;;19.30;99.90;;;;;;5034432;28;20214;-80
2021/06/20 04:21:47;;;;;;;37.70;19.38;;;19.30;99.90;;;;;;5034959;28;20659;-81
2021/06/20 04:24:13;;;;;;;30.33;17.52;;;19.30;99.90;;;;;;5034372;28;20624;-81
2021/06/20 04:26:41;;;;;;;32.20;19.30;;;19.30;99.90;;;;;;5034562;28;20179;-80
2021/06/20 04:29:07;;;;;;;33.13;18.15;;;19.40;99.90;;;;;;5034361;28;20251;-81
2021/06/20 04:31:33;;;;;;;30.95;18.63;;;19.50;99.90;;;;;;5032994;28;20207;-80
2021/06/20 04:33:59;;;;;;;33.70;18.27;;;19.40;99.90;;;;;;5034420;28;20176;-80
2021/06/20 04:36:24;;;;;;;30.63;18.45;;;19.30;99.90;;;;;;5034076;28;20203;-80
2021/06/20 04:38:50;;;;;;;27.95;17.98;;;19.30;99.90;;;;;;5032656;28;20168;-81
2021/06/20 04:41:18;;;;;;;30.35;17.60;;;19.30;99.90;;;;;;5032560;28;20214;-81
2021/06/20 04:46:35;;;;;;;30.08;18.08;;;19.50;99.90;;;;;;5034314;28;20187;-80
2021/06/20 04:49:11;;;;;;;24.10;16.27;;;19.40;99.90;;;;;;5034044;28;20174;-81
2021/06/20 04:51:41;;;;;;;30.77;16.67;;;19.40;99.90;;;;;;5033676;28;20203;-80
2021/06/20 04:54:08;;;;;;;26.50;16.48;;;19.40;99.90;;;;;;5034253;28;20223;-80
2021/06/20 04:56:34;;;;;;;29.90;16.83;;;19.50;99.90;;;;;;5033773;28;20595;-81
2021/06/20 04:59:00;;;;;;;28.63;16.73;;;19.50;99.90;;;;;;5033583;28;20251;-81
2021/06/20 05:01:25;;;;;;;30.98;17.35;;;19.40;99.90;;;;;;5031962;28;20595;-80
2021/06/20 05:03:53;;;;;;;29.35;17.27;;;19.40;99.90;;;;;;5033791;28;20635;-81
2021/06/20 05:06:19;;;;;;;25.98;17.13;;;19.60;99.90;;;;;;5033923;28;20179;-80
2021/06/20 05:08:45;;;;;;;29.42;18.02;;;19.60;99.90;;;;;;5033825;28;20192;-81
2021/06/20 05:11:11;;;;;;;25.95;16.05;;;19.60;99.90;;;;;;5033517;28;20242;-81
2021/06/20 05:13:37;;;;;;;28.55;16.52;;;19.70;99.90;;;;;;5033645;28;20190;-80
2021/06/20 05:16:03;;;;;;;28.52;17.02;;;19.90;99.90;;;;;;5033575;28;20193;-81
2021/06/20 05:18:28;;;;;;;28.67;17.08;;;20.00;99.90;;;;;;5033225;28;20327;-80
2021/06/20 05:20:54;;;;;;;26.80;16.58;;;20.10;99.90;;;;;;5032698;28;20203;-80
2021/06/20 05:23:21;;;;;;;29.38;17.92;;;20.10;99.90;;;;;;5032580;28;20664;-81
2021/06/20 05:25:47;;;;;;;31.60;17.33;;;20.20;99.90;;;;;;5031754;28;20168;-81
2021/06/20 05:28:13;;;;;;;25.05;16.95;;;20.30;99.90;;;;;;5033214;28;20168;-86
2021/06/20 05:30:39;;;;;;;27.05;16.15;;;20.30;99.90;;;;;;5033622;28;20198;-84
2021/06/20 05:33:05;;;;;;;30.30;17.13;;;20.40;99.90;;;;;;5032528;28;20196;-85
2021/06/20 05:35:31;;;;;;;26.33;16.00;;;20.60;99.90;;;;;;5048504;28;20191;-84
2021/06/20 05:37:56;;;;;;;25.77;16.50;;;20.70;99.90;;;;;;5032141;28;20259;-85
2021/06/20 05:40:22;;;;;;;27.70;17.40;;;20.60;99.90;;;;;;5032360;28;20168;-85
2021/06/20 05:42:48;;;;;;;28.60;16.70;;;20.60;99.90;;;;;;5033524;28;20183;-86
2021/06/20 05:45:14;;;;;;;25.50;16.17;;;20.80;99.90;;;;;;5033637;28;20313;-82
2021/06/20 05:47:39;;;;;;;24.20;15.80;;;21.00;99.90;;;;;;5031548;28;20168;-82
2021/06/20 05:50:06;;;;;;;25.02;15.55;;;20.90;99.90;;;;;;5032451;28;20175;-82
2021/06/20 05:52:31;;;;;;;27.55;16.80;;;21.00;99.90;;;;;;5032254;28;20579;-83
2021/06/20 05:54:57;;;;;;;23.65;16.20;;;21.00;99.90;;;;;;5032882;28;20175;-83
2021/06/20 05:57:23;;;;;;;22.58;15.05;;;20.90;99.90;;;;;;5032721;28;20594;-82
2021/06/20 05:59:48;;;;;;;24.65;16.48;;;20.90;99.90;;;;;;5031759;28;20241;-82
2021/06/20 06:02:14;;;;;;;26.95;15.70;;;20.80;99.90;;;;;;5031283;28;20282;-83
2021/06/20 06:04:44;;;;;;;24.50;15.32;;;20.80;99.90;;;;;;5033018;28;20195;-82
2021/06/20 06:07:10;;;;;;;25.50;15.10;;;20.90;99.90;;;;;;5032684;28;20559;-82
2021/06/20 06:09:36;;;;;;;22.85;15.15;;;21.00;99.90;;;;;;5031834;28;20536;-82
2021/06/20 06:12:06;;;;;;;24.25;15.60;;;21.10;99.90;;;;;;5032675;28;20649;-81
2021/06/20 06:14:32;;;;;;;24.05;15.05;;;21.10;99.90;;;;;;5032787;28;20243;-85
2021/06/20 06:16:57;;;;;;;24.98;15.27;;;21.10;99.90;;;;;;5031408;28;20262;-82
2021/06/20 06:19:24;;;;;;;19.92;14.52;;;21.00;99.90;;;;;;5031231;28;20267;-83
2021/06/20 06:21:50;;;;;;;17.02;12.68;;;21.10;99.90;;;;;;5031019;28;20196;-82
2021/06/20 06:24:16;;;;;;;16.88;11.88;;;21.10;99.90;;;;;;5032233;28;20254;-82
2021/06/20 06:26:43;;;;;;;19.73;12.57;;;21.20;99.90;;;;;;5032274;28;20200;-82
2021/06/20 06:29:09;;;;;;;21.50;12.43;;;21.20;99.90;;;;;;5030808;28;20758;-81
2021/06/20 06:31:41;;;;;;;12.80;11.27;;;21.50;99.90;;;;;;5030662;28;20222;-82
2021/06/20 06:34:06;;;;;;;14.77;11.10;;;21.60;99.90;;;;;;5030976;28;20171;-81
2021/06/20 06:36:32;;;;;;;12.40;11.05;;;21.80;99.90;;;;;;5036653;28;20560;-80
2021/06/20 06:38:58;;;;;;;16.83;10.75;;;21.90;99.90;;;;;;5037356;28;20655;-82
2021/06/20 06:41:23;;;;;;;9.88;8.88;;;21.90;99.90;;;;;;5047680;28;20196;-82
2021/06/20 06:43:49;;;;;;;12.35;8.57;;;22.10;99.90;;;;;;5048693;28;20152;-79
2021/06/20 06:46:15;;;;;;;9.80;7.15;;;22.40;99.90;;;;;;5034448;28;20168;-82
2021/06/20 06:48:40;;;;;;;7.63;6.07;;;22.40;99.90;;;;;;5032451;28;20175;-83
2021/06/20 06:51:06;;;;;;;7.07;5.65;;;22.50;99.90;;;;;;5033498;28;20656;-83
2021/06/20 06:53:32;;;;;;;6.00;5.15;;;23.10;99.90;;;;;;5034295;28;20251;-81
2021/06/20 06:55:58;;;;;;;7.00;4.90;;;23.20;99.90;;;;;;5033527;28;20247;-81
2021/06/20 06:58:24;;;;;;;5.93;4.50;;;23.40;99.90;;;;;;5032362;28;20168;-81
2021/06/20 07:00:50;;;;;;;4.22;3.85;;;23.30;99.90;;;;;;5033147;28;20183;-79
2021/06/20 07:03:16;;;;;;;4.70;4.30;;;23.20;99.90;;;;;;5033158;28;20195;-80
2021/06/20 07:05:42;;;;;;;3.92;3.63;;;23.10;99.90;;;;;;5031504;28;20218;-78
2021/06/20 07:08:08;;;;;;;5.38;3.08;;;23.50;99.90;;;;;;5032531;28;20164;-79
2021/06/20 07:10:34;;;;;;;8.95;2.80;;;23.70;99.90;;;;;;5032490;28;20218;-80
2021/06/20 07:13:00;;;;;;;4.85;2.38;;;24.40;99.90;;;;;;5030952;28;20194;-80
2021/06/20 07:15:26;;;;;;;4.00;2.10;;;25.00;99.90;;;;;;5032338;28;20176;-80
2021/06/20 07:17:52;;;;;;;1.90;1.80;;;25.30;99.90;;;;;;5032252;28;20171;-84
2021/06/20 07:20:19;;;;;;;1.90;1.80;;;26.00;99.90;;;;;;5031937;28;20527;-84
2021/06/20 07:22:46;;;;;;;5.22;1.95;;;26.50;99.90;;;;;;5032775;28;20204;-84
2021/06/20 07:25:19;;;;;;;2.28;2.03;;;26.50;99.90;;;;;;5031418;28;20267;-84
2021/06/20 07:27:45;;;;;;;5.57;1.80;;;25.70;99.90;;;;;;5032226;28;20329;-83
2021/06/20 07:30:14;;;;;;;2.13;1.40;;;26.00;99.90;;;;;;5031083;28;20172;-84
2021/06/20 07:32:41;;;;;;;5.32;1.70;;;26.20;99.90;;;;;;5032484;28;20204;-84
2021/06/20 07:35:07;;;;;;;4.03;1.45;;;26.70;99.90;;;;;;5033658;28;20167;-84
2021/06/20 07:37:33;;;;;;;2.05;1.02;;;27.10;99.90;;;;;;5031137;28;20528;-83
2021/06/20 07:39:59;;;;;;;1.25;1.15;;;26.50;99.90;;;;;;5028620;28;20206;-84
2021/06/20 07:42:27;;;;;;;2.80;1.15;;;26.30;99.90;;;;;;5028210;28;20227;-84
2021/06/20 07:44:53;;;;;;;0.80;0.75;;;26.90;99.90;;;;;;5033419;28;20164;-82
2021/06/20 07:47:18;;;;;;;3.80;1.15;;;27.60;99.90;;;;;;5034088;28;20651;-81
2021/06/20 07:49:44;;;;;;;3.38;0.90;;;28.00;99.90;;;;;;5032410;28;20255;-82
2021/06/20 07:52:10;;;;;;;1.75;1.20;;;27.80;99.90;;;;;;5014334;28;20222;-81
2021/06/20 07:54:35;;;;;;;1.58;1.10;;;27.40;99.90;;;;;;5018689;28;20219;-82
2021/06/20 07:57:02;;;;;;;7.85;1.40;;;26.90;99.90;;;;;;5055022;28;20246;-82
2021/06/20 07:59:27;;;;;;;1.60;1.20;;;26.40;99.90;;;;;;5049800;28;20167;-82
2021/06/20 08:01:53;;;;;;;4.70;0.90;;;26.00;99.90;;;;;;5012809;28;20196;-82
2021/06/20 08:04:19;;;;;;;2.75;0.80;;;25.80;99.90;;;;;;5015182;28;20525;-84
2021/06/20 08:06:44;;;;;;;1.23;0.80;;;24.90;99.90;;;;;;5013723;28;20256;-83
2021/06/20 08:09:10;;;;;;;2.05;0.95;;;24.40;99.90;;;;;;5013925;28;20195;-83
2021/06/20 08:11:36;;;;;;;1.33;1.02;;;24.00;99.90;;;;;;5013130;28;20212;-83
2021/06/20 08:14:03;;;;;;;1.08;1.02;;;23.90;99.90;;;;;;5030355;28;20696;-82
2021/06/20 08:16:30;;;;;;;1.98;1.30;;;23.80;99.90;;;;;;5015178;28;20173;-83
2021/06/20 08:18:55;;;;;;;1.42;1.20;;;23.90;99.90;;;;;;5014062;28;20179;-82
2021/06/20 08:21:21;;;;;;;1.60;0.80;;;24.10;99.90;;;;;;5030387;28;20203;-82
2021/06/20 08:23:49;;;;;;;1.88;1.40;;;24.50;99.90;;;;;;5033495;28;20176;-85
2021/06/20 08:26:15;;;;;;;1.52;1.10;;;24.80;99.90;;;;;;5034541;28;20226;-84
2021/06/20 08:28:40;;;;;;;1.33;1.05;;;25.00;99.90;;;;;;5049736;28;20859;-83
2021/06/20 08:31:07;;;;;;;0.93;0.90;;;24.90;99.90;;;;;;5032772;28;20644;-84
2021/06/20 08:33:32;;;;;;;4.57;1.10;;;24.70;99.90;;;;;;5049859;28;20176;-84
2021/06/20 08:35:58;;;;;;;0.98;0.90;;;24.50;99.90;;;;;;5050265;28;20638;-85
2021/06/20 08:38:24;;;;;;;5.45;1.02;;;24.40;99.90;;;;;;5044831;28;20662;-86
2021/06/20 08:40:49;;;;;;;2.63;0.93;;;24.30;99.90;;;;;;5039696;28;20180;-85
2021/06/20 08:43:15;;;;;;;1.17;0.90;;;24.20;99.90;;;;;;5049440;28;20279;-85
2021/06/20 08:45:41;;;;;;;0.80;0.80;;;24.00;99.90;;;;;;5049766;28;20168;-85
2021/06/20 08:48:12;;;;;;;3.60;1.30;;;23.90;99.90;;;;;;5035324;28;20262;-85
2021/06/20 08:50:38;;;;;;;1.45;0.98;;;23.80;99.90;;;;;;5060877;28;20220;-87
2021/06/20 08:53:04;;;;;;;5.07;1.00;;;23.70;99.90;;;;;;5052806;28;20199;-84
2021/06/20 08:55:30;;;;;;;1.40;0.93;;;23.80;99.90;;;;;;5055856;28;20178;-85
2021/06/20 08:58:02;;;;;;;3.15;1.02;;;23.80;99.90;;;;;;5053178;28;20167;-84
2021/06/20 09:00:28;;;;;;;1.30;0.88;;;23.80;99.90;;;;;;5049177;28;20254;-83
2021/06/20 09:02:59;;;;;;;3.15;0.82;;;23.50;99.90;;;;;;5051735;28;20599;-83
2021/06/20 09:05:25;;;;;;;2.85;1.13;;;23.30;99.90;;;;;;5054073;28;20167;-84
2021/06/20 09:07:50;;;;;;;3.42;0.90;;;23.30;99.90;;;;;;5054059;28;20190;-86
2021/06/20 09:10:25;;;;;;;2.80;1.38;;;23.40;99.90;;;;;;5032589;28;20176;-79
2021/06/20 09:12:56;;;;;;;0.88;0.88;;;23.70;99.90;;;;;;5024289;28;20210;-84
2021/06/20 09:15:30;;;;;;;4.90;1.23;;;23.90;99.90;;;;;;5019022;28;20580;-85
2021/06/20 09:17:58;;;;;;;4.40;1.30;;;24.10;99.90;;;;;;5029534;28;20167;-84
2021/06/20 09:20:45;;;;;;;1.40;1.00;;;24.40;99.90;;;;;;5029473;28;20168;-85
2021/06/20 09:23:14;;;;;;;4.72;1.15;;;24.70;99.90;;;;;;5035733;28;20204;-84
2021/06/20 09:25:42;;;;;;;1.00;0.88;;;24.80;99.90;;;;;;5015317;28;20172;-85
2021/06/20 09:28:13;;;;;;;2.60;0.90;;;25.10;99.90;;;;;;5029209;28;20179;-85
2021/06/20 09:30:51;;;;;;;1.58;1.00;;;24.80;99.90;;;;;;5029355;28;20179;-85
2021/06/20 09:33:18;;;;;;;0.68;0.68;;;24.70;99.90;;;;;;5013403;28;20200;-87
2021/06/20 09:35:45;;;;;;;3.42;1.00;;;24.40;99.90;;;;;;5030826;28;20608;-87
2021/06/20 09:38:22;;;;;;;1.00;0.70;;;24.30;99.90;;;;;;5030465;28;20183;-86
2021/06/20 09:40:52;;;;;;;1.13;0.70;;;24.10;99.90;;;;;;5028282;28;20190;-86
2021/06/20 09:43:19;;;;;;;1.27;0.82;;;24.20;99.90;;;;;;5013644;28;20649;-86
2021/06/20 09:45:47;;;;;;;4.35;0.90;;;24.50;99.90;;;;;;5029550;28;20172;-86
2021/06/20 09:48:28;;;;;;;0.75;0.75;;;24.70;99.90;;;;;;5029653;28;20161;-87
2021/06/20 09:50:56;;;;;;;3.53;0.82;;;24.90;99.90;;;;;;5029278;28;20204;-86
2021/06/20 09:53:33;;;;;;;0.60;0.60;;;25.00;99.90;;;;;;5014017;28;20220;-86
2021/06/20 09:56:14;;;;;;;0.88;0.60;;;25.10;99.90;;;;;;5029385;28;20172;-86
2021/06/20 09:58:45;;;;;;;0.52;0.52;;;25.00;99.90;;;;;;5029124;28;20180;-86
2021/06/20 10:01:12;;;;;;;2.95;0.90;;;24.70;99.90;;;;;;5029451;28;20563;-87
2021/06/20 10:03:38;;;;;;;2.28;1.08;;;24.60;99.90;;;;;;5029709;28;20169;-86
2021/06/20 10:06:05;;;;;;;0.60;0.60;;;24.90;99.90;;;;;;5029996;28;20239;-86
2021/06/20 10:08:32;;;;;;;0.70;0.70;;;24.90;99.90;;;;;;5029381;28;20204;-87
2021/06/20 10:10:58;;;;;;;0.73;0.68;;;24.90;99.90;;;;;;5029506;28;20196;-88
2021/06/20 10:13:23;;;;;;;1.45;0.82;;;24.70;99.90;;;;;;5029649;28;20264;-88
2021/06/20 10:15:49;;;;;;;1.90;0.80;;;24.60;99.90;;;;;;5029375;28;20160;-87
2021/06/20 10:18:15;;;;;;;0.95;0.85;;;24.70;99.90;;;;;;5029290;28;20181;-86
2021/06/20 10:20:42;;;;;;;1.83;0.93;;;24.90;99.90;;;;;;5029355;28;20180;-88
2021/06/20 10:23:24;;;;;;;6.25;1.30;;;25.30;99.90;;;;;;5030278;28;20268;-88
2021/06/20 10:26:07;;;;;;;1.67;0.95;;;25.70;99.90;;;;;;5029532;28;20299;-88
2021/06/20 10:28:33;;;;;;;2.17;0.80;;;25.80;99.90;;;;;;5029400;28;20172;-87
2021/06/20 10:31:08;;;;;;;2.35;0.85;;;25.60;99.90;;;;;;5030232;28;20257;-89
2021/06/20 10:33:37;;;;;;;2.33;1.23;;;25.50;99.90;;;;;;5013510;28;20188;-89
2021/06/20 10:36:09;;;;;;;1.27;0.82;;;25.10;99.90;;;;;;5029647;28;20621;-90
2021/06/20 10:38:44;;;;;;;1.27;0.90;;;24.90;99.90;;;;;;5029810;28;20182;-88
2021/06/20 10:41:24;;;;;;;2.63;0.80;;;24.90;99.90;;;;;;5029638;28;20247;-89
2021/06/20 10:43:56;;;;;;;1.08;0.82;;;25.10;99.90;;;;;;5013780;28;20632;-91
2021/06/20 10:46:22;;;;;;;5.25;0.77;;;25.00;99.90;;;;;;5030374;28;20180;-89
2021/06/20 10:48:48;;;;;;;0.65;0.60;;;25.20;99.90;;;;;;5015023;28;20171;-89
2021/06/20 10:51:21;;;;;;;0.82;0.82;;;25.60;99.90;;;;;;5034049;28;20196;-88
2021/06/20 10:53:47;;;;;;;2.90;0.63;;;25.80;99.90;;;;;;5053275;28;20173;-88
2021/06/20 10:56:39;;;;;;;0.98;0.80;;;26.00;99.90;;;;;;5050505;28;20185;-89
2021/06/20 10:59:05;;;;;;;0.73;0.60;;;26.00;99.90;;;;;;5038539;28;20193;-89
2021/06/20 11:01:40;;;;;;;9.73;0.70;;;25.80;99.90;;;;;;5037424;28;20412;-86
2021/06/20 11:04:06;;;;;;;3.78;1.05;;;26.00;99.90;;;;;;5032251;28;20730;-85
2021/06/20 11:06:32;;;;;;;2.05;1.00;;;25.70;99.90;;;;;;5016279;28;20164;-85
2021/06/20 11:09:00;;;;;;;0.70;0.70;;;25.50;99.90;;;;;;5016014;28;20212;-84
2021/06/20 11:11:34;;;;;;;0.68;0.60;;;25.50;99.90;;;;;;5030659;28;20212;-85
2021/06/20 11:13:59;;;;;;;0.82;0.60;;;25.80;99.90;;;;;;5015175;28;20169;-85
2021/06/20 11:16:37;;;;;;;0.70;0.70;;;25.70;99.90;;;;;;5031058;28;20183;-86
2021/06/20 11:19:16;;;;;;;1.50;0.70;;;26.00;99.90;;;;;;5030792;28;20207;-91
2021/06/20 11:21:57;;;;;;;0.60;0.60;;;25.90;99.90;;;;;;5035547;28;20196;-94
2021/06/20 11:24:30;;;;;;;1.75;0.70;;;25.90;99.90;;;;;;5035844;28;20175;-90
2021/06/20 11:27:01;;;;;;;0.50;0.50;;;26.10;99.90;;;;;;5019048;28;20215;-89
2021/06/20 11:29:45;;;;;;;1.27;0.60;;;26.40;99.90;;;;;;5033612;28;20525;-89
2021/06/20 11:32:14;;;;;;;0.98;0.68;;;26.80;99.90;;;;;;5033364;28;20216;-89
2021/06/20 11:34:43;;;;;;;3.10;0.55;;;27.20;99.90;;;;;;5033048;28;20172;-89
2021/06/20 11:37:25;;;;;;;0.82;0.60;;;27.00;99.90;;;;;;5018161;28;20173;-90
2021/06/20 11:39:55;;;;;;;1.02;0.52;;;27.10;99.90;;;;;;5032843;28;20168;-89
2021/06/20 11:42:40;;;;;;;0.65;0.60;;;27.40;99.90;;;;;;5033129;28;20223;-86
2021/06/20 11:45:12;;;;;;;2.47;0.70;;;27.30;99.90;;;;;;5032622;28;20195;-87
2021/06/20 11:47:43;;;;;;;0.90;0.90;;;27.30;99.90;;;;;;5032651;28;20173;-87
2021/06/20 11:50:14;;;;;;;1.55;0.50;;;27.30;99.90;;;;;;5031852;28;20223;-85
2021/06/20 11:52:41;;;;;;;0.70;0.57;;;27.30;99.90;;;;;;5031689;28;20240;-86
2021/06/20 11:55:12;;;;;;;0.68;0.63;;;27.40;99.90;;;;;;5031923;28;20176;-85
2021/06/20 11:57:37;;;;;;;1.60;0.90;;;27.20;99.90;;;;;;5031545;28;20201;-86
2021/06/20 12:00:15;;;;;;;0.98;0.63;;;27.00;99.90;;;;;;5031526;28;20221;-86
2021/06/20 12:02:42;;;;;;;1.02;0.80;;;26.60;99.90;;;;;;5016214;28;20322;-86
2021/06/20 12:05:16;;;;;;;1.15;0.77;;;26.40;99.90;;;;;;5031595;28;20177;-86
2021/06/20 12:07:43;;;;;;;0.60;0.60;;;26.40;99.90;;;;;;5031462;28;20173;-86
2021/06/20 12:10:14;;;;;;;1.00;0.77;;;26.40;99.90;;;;;;5016273;28;20606;-85
2021/06/20 12:12:41;;;;;;;2.80;0.77;;;26.40;99.90;;;;;;5031004;28;20216;-84
2021/06/20 12:15:07;;;;;;;7.38;0.70;;;26.50;99.90;;;;;;5031192;28;20211;-84
2021/06/20 12:17:33;;;;;;;1.75;0.50;;;26.50;99.90;;;;;;5031023;28;20251;-86
2021/06/20 12:19:59;;;;;;;1.77;0.70;;;26.80;99.90;;;;;;5031271;28;20212;-87
2021/06/20 12:22:25;;;;;;;0.50;0.50;;;27.00;99.90;;;;;;5031103;28;20228;-86
2021/06/20 12:24:57;;;;;;;1.20;0.60;;;26.90;99.90;;;;;;5031442;28;20648;-85
2021/06/20 12:27:34;;;;;;;1.02;0.57;;;26.90;99.90;;;;;;5031020;28;20632;-87
2021/06/20 12:30:14;;;;;;;0.43;0.40;;;27.00;99.90;;;;;;5030847;28;20176;-86
2021/06/20 12:32:39;;;;;;;1.17;0.60;;;26.80;99.90;;;;;;5031077;28;20676;-87
2021/06/20 12:35:09;;;;;;;1.65;0.68;;;26.90;99.90;;;;;;5031662;28;20273;-87
2021/06/20 12:37:40;;;;;;;3.33;0.55;;;27.00;99.90;;;;;;5030947;28;20252;-87
2021/06/20 12:40:14;;;;;;;1.00;0.70;;;27.00;99.90;;;;;;5031083;28;20161;-86
2021/06/20 12:42:51;;;;;;;1.27;1.10;;;26.80;99.90;;;;;;5031099;28;20189;-86